Time;durP1;ratioP1;P1;durP2;ratioP2;P2;SDS_P1;SDS_P2;PMS_P1;PMS_P2;Temp;Humidity;BMP_temperature;BMP_pressure;BME280_temperature;BME280_humidity;BME280_pressure;Samples;Min_cycle;Max_cycle;Signal;HPM_P1;HPM_P2
2023/09/26 00:02:25;;;;;;;5.65;2.65;;;15.90;99.90;;;;;;5050354;28;20040;-77
2023/09/26 00:04:51;;;;;;;4.78;2.25;;;15.90;99.90;;;;;;5033921;28;20045;-77
2023/09/26 00:07:17;;;;;;;6.32;2.53;;;15.90;99.90;;;;;;5049818;28;20510;-78
2023/09/26 00:09:43;;;;;;;6.57;2.88;;;15.90;99.90;;;;;;5038392;28;20076;-77
2023/09/26 00:12:09;;;;;;;4.80;2.60;;;15.90;99.90;;;;;;5049425;28;20077;-77
2023/09/26 00:14:34;;;;;;;6.25;2.97;;;15.90;99.90;;;;;;5051422;28;20049;-78
2023/09/26 00:17:00;;;;;;;4.80;2.60;;;15.90;99.90;;;;;;5032341;28;20045;-77
2023/09/26 00:19:26;;;;;;;6.38;2.30;;;15.90;99.90;;;;;;5043148;28;20041;-77
2023/09/26 00:21:51;;;;;;;5.25;2.15;;;15.80;99.90;;;;;;5042716;28;20377;-77
2023/09/26 00:24:17;;;;;;;6.00;2.40;;;15.80;99.90;;;;;;5042486;28;20045;-77
2023/09/26 00:26:43;;;;;;;4.38;2.10;;;15.80;99.90;;;;;;5051882;28;20081;-78
2023/09/26 00:29:09;;;;;;;6.07;2.60;;;15.80;99.90;;;;;;5048371;28;20037;-77
2023/09/26 00:31:35;;;;;;;5.43;2.65;;;15.80;99.90;;;;;;5037968;28;20049;-77
2023/09/26 00:34:01;;;;;;;6.35;3.00;;;15.80;99.90;;;;;;5054641;28;20068;-77
2023/09/26 00:36:28;;;;;;;4.55;2.08;;;15.80;99.90;;;;;;5053587;28;20060;-77
2023/09/26 00:38:54;;;;;;;4.45;1.95;;;15.80;99.90;;;;;;5049553;28;20038;-77
2023/09/26 00:41:21;;;;;;;4.10;1.90;;;15.70;99.90;;;;;;5037483;28;20144;-78
2023/09/26 00:43:48;;;;;;;4.97;1.88;;;15.70;99.90;;;;;;5054112;28;20475;-77
2023/09/26 00:46:18;;;;;;;5.65;2.03;;;15.70;99.90;;;;;;5054848;28;20528;-78
2023/09/26 00:48:44;;;;;;;4.45;2.50;;;15.70;99.90;;;;;;5052317;28;20084;-77
2023/09/26 00:51:19;;;;;;;5.35;1.90;;;15.70;99.90;;;;;;5048934;28;20114;-78
2023/09/26 00:53:45;;;;;;;5.07;2.17;;;15.70;99.90;;;;;;5052688;28;20443;-78
2023/09/26 00:56:11;;;;;;;3.08;1.67;;;15.70;99.90;;;;;;5026080;28;20061;-77
2023/09/26 00:58:38;;;;;;;4.30;2.20;;;15.70;99.90;;;;;;5052561;28;20045;-78
2023/09/26 01:01:05;;;;;;;4.05;2.25;;;15.70;99.90;;;;;;5048525;28;20040;-77
2023/09/26 01:03:31;;;;;;;4.57;2.42;;;15.70;99.90;;;;;;5052693;28;20049;-78
2023/09/26 01:05:58;;;;;;;4.97;2.47;;;15.70;99.90;;;;;;5026616;28;20508;-78
2023/09/26 01:08:25;;;;;;;5.97;2.63;;;15.70;99.90;;;;;;5072741;28;20496;-78
2023/09/26 01:10:50;;;;;;;6.68;3.30;;;15.70;99.90;;;;;;5054051;28;20123;-78
2023/09/26 01:13:17;;;;;;;6.40;3.50;;;15.70;99.90;;;;;;5054273;28;20045;-78
2023/09/26 01:15:44;;;;;;;4.57;2.08;;;15.70;99.90;;;;;;5054068;28;20476;-78
2023/09/26 01:18:12;;;;;;;5.00;2.58;;;15.70;99.90;;;;;;5037215;28;20044;-77
2023/09/26 01:20:40;;;;;;;4.78;2.53;;;15.70;99.90;;;;;;5052617;28;20044;-76
2023/09/26 01:23:06;;;;;;;5.78;2.45;;;15.60;99.90;;;;;;5053615;28;20087;-78
2023/09/26 01:25:35;;;;;;;6.22;2.58;;;15.60;99.90;;;;;;5077299;28;20076;-78
2023/09/26 01:28:06;;;;;;;10.05;3.65;;;15.60;99.90;;;;;;5052940;28;20481;-78
2023/09/26 01:30:37;;;;;;;6.35;2.03;;;15.60;99.90;;;;;;5052889;28;20408;-78
2023/09/26 01:33:08;;;;;;;5.22;2.50;;;15.60;99.90;;;;;;5053654;28;20052;-77
2023/09/26 01:35:34;;;;;;;5.88;2.50;;;15.60;99.90;;;;;;5036143;28;20174;-78
2023/09/26 01:38:00;;;;;;;5.93;2.92;;;15.60;99.90;;;;;;5051679;28;20094;-78
2023/09/26 01:40:26;;;;;;;6.20;3.38;;;15.60;99.90;;;;;;5048770;28;20041;-78
2023/09/26 01:42:53;;;;;;;6.85;3.08;;;15.60;99.90;;;;;;5046184;28;20056;-77
2023/09/26 01:45:20;;;;;;;5.53;2.80;;;15.60;99.90;;;;;;5045374;28;20052;-78
2023/09/26 01:47:46;;;;;;;8.95;3.25;;;15.60;99.90;;;;;;5052533;28;20045;-78
2023/09/26 01:50:14;;;;;;;7.05;3.13;;;15.60;99.90;;;;;;5043235;28;20041;-77
2023/09/26 01:52:43;;;;;;;5.25;2.67;;;15.60;99.90;;;;;;5044643;28;20381;-78
2023/09/26 01:55:20;;;;;;;5.18;2.70;;;15.50;99.90;;;;;;5029634;28;20052;-77
2023/09/26 01:57:47;;;;;;;4.93;2.47;;;15.50;99.90;;;;;;5067138;28;20045;-78
2023/09/26 02:00:14;;;;;;;4.57;2.35;;;15.50;99.90;;;;;;5047412;28;20072;-78
2023/09/26 02:02:44;;;;;;;4.88;2.25;;;15.50;99.90;;;;;;5051150;28;20412;-77
2023/09/26 02:05:13;;;;;;;5.20;2.80;;;15.50;99.90;;;;;;5045267;28;20081;-78
2023/09/26 02:07:42;;;;;;;7.70;3.72;;;15.50;99.90;;;;;;5048585;28;20068;-78
2023/09/26 02:10:08;;;;;;;5.10;3.35;;;15.50;99.90;;;;;;5052249;28;20372;-77
2023/09/26 02:12:35;;;;;;;8.10;4.40;;;15.50;99.90;;;;;;5043343;28;20435;-77
2023/09/26 02:15:05;;;;;;;8.02;4.57;;;15.50;99.90;;;;;;5050520;28;20045;-77
2023/09/26 02:17:35;;;;;;;6.93;4.80;;;15.50;99.90;;;;;;5052342;28;20403;-78
2023/09/26 02:20:12;;;;;;;6.13;4.00;;;15.50;99.90;;;;;;5034939;28;20049;-77
2023/09/26 02:22:51;;;;;;;10.23;4.93;;;15.50;99.90;;;;;;5050544;28;20125;-78
2023/09/26 02:25:19;;;;;;;5.85;3.13;;;15.50;99.90;;;;;;5046911;28;20052;-78
2023/09/26 02:27:45;;;;;;;10.85;3.60;;;15.50;99.90;;;;;;5049567;28;20127;-78
2023/09/26 02:30:13;;;;;;;7.05;4.72;;;15.40;99.90;;;;;;5050345;28;20056;-77
2023/09/26 02:32:42;;;;;;;7.35;4.28;;;15.40;99.90;;;;;;5051749;28;20507;-78
2023/09/26 02:35:11;;;;;;;6.25;3.20;;;15.40;99.90;;;;;;5049516;28;20053;-78
2023/09/26 02:37:38;;;;;;;8.27;3.88;;;15.40;99.90;;;;;;5048064;28;20045;-78
2023/09/26 02:40:09;;;;;;;7.40;4.05;;;15.40;99.90;;;;;;5043741;28;20870;-78
2023/09/26 02:42:36;;;;;;;5.75;3.20;;;15.40;99.90;;;;;;5049747;28;20424;-77
2023/09/26 02:45:02;;;;;;;8.32;3.95;;;15.40;99.90;;;;;;5048744;28;20136;-78
2023/09/26 02:47:28;;;;;;;7.03;3.17;;;15.30;99.90;;;;;;5051491;28;20049;-77
2023/09/26 02:49:56;;;;;;;4.68;2.15;;;15.30;99.90;;;;;;5047998;28;20057;-77
2023/09/26 02:52:23;;;;;;;6.65;3.50;;;15.30;99.90;;;;;;5051957;28;20053;-78
2023/09/26 02:54:51;;;;;;;7.20;4.15;;;15.20;99.90;;;;;;5049641;28;20101;-78
2023/09/26 02:57:18;;;;;;;9.48;4.80;;;15.20;99.90;;;;;;5030749;28;20397;-78
2023/09/26 02:59:44;;;;;;;6.60;3.95;;;15.20;99.90;;;;;;5043256;28;20041;-78
2023/09/26 03:02:11;;;;;;;4.88;3.00;;;15.20;99.90;;;;;;5051364;28;20052;-77
2023/09/26 03:04:37;;;;;;;8.05;3.28;;;15.20;99.90;;;;;;5042785;28;20051;-78
2023/09/26 03:07:03;;;;;;;4.55;2.80;;;15.20;99.90;;;;;;5023902;28;20988;-77
2023/09/26 03:09:28;;;;;;;8.02;4.28;;;15.20;99.90;;;;;;5046891;28;20072;-77
2023/09/26 03:11:54;;;;;;;6.72;3.70;;;15.10;99.90;;;;;;5030019;28;20056;-77
2023/09/26 03:14:20;;;;;;;8.50;3.67;;;15.10;99.90;;;;;;5049627;28;20072;-77
2023/09/26 03:16:46;;;;;;;8.77;3.70;;;15.10;99.90;;;;;;5050302;28;20037;-77
2023/09/26 03:19:12;;;;;;;7.38;4.22;;;15.00;99.90;;;;;;5048701;28;20405;-77
2023/09/26 03:21:38;;;;;;;5.78;2.95;;;15.00;99.90;;;;;;5048120;28;20087;-77
2023/09/26 03:24:04;;;;;;;5.65;2.30;;;15.00;99.90;;;;;;5050149;28;20037;-78
2023/09/26 03:26:30;;;;;;;6.97;3.20;;;15.00;99.90;;;;;;5046259;28;20420;-78
2023/09/26 03:28:56;;;;;;;5.88;2.80;;;14.90;99.90;;;;;;5050926;28;20037;-78
2023/09/26 03:31:21;;;;;;;6.57;3.90;;;14.90;99.90;;;;;;5047950;28;20068;-77
2023/09/26 03:33:49;;;;;;;8.13;3.83;;;14.90;99.90;;;;;;5047495;28;20055;-78
2023/09/26 03:36:15;;;;;;;7.75;3.58;;;14.80;99.90;;;;;;5041280;28;20532;-78
2023/09/26 03:38:42;;;;;;;10.52;4.50;;;14.80;99.90;;;;;;5042088;28;20133;-78
2023/09/26 03:41:09;;;;;;;6.93;3.78;;;14.70;99.90;;;;;;5048524;28;20055;-77
2023/09/26 03:43:34;;;;;;;6.40;3.75;;;14.70;99.90;;;;;;5050189;28;20057;-77
2023/09/26 03:46:03;;;;;;;7.50;4.20;;;14.60;99.90;;;;;;5049911;28;20055;-77
2023/09/26 03:48:29;;;;;;;7.70;3.72;;;14.60;99.90;;;;;;5050520;28;20485;-77
2023/09/26 03:50:55;;;;;;;9.73;4.63;;;14.60;99.90;;;;;;5048860;28;20397;-78
2023/09/26 03:53:23;;;;;;;7.40;4.05;;;14.60;99.90;;;;;;5050938;28;20075;-77
2023/09/26 03:55:55;;;;;;;8.38;4.18;;;14.50;99.90;;;;;;5050490;28;20041;-77
2023/09/26 03:58:21;;;;;;;7.75;3.83;;;14.50;99.90;;;;;;5063649;28;20087;-78
2023/09/26 04:00:50;;;;;;;8.68;4.63;;;14.50;99.90;;;;;;5046762;28;20044;-77
2023/09/26 04:03:20;;;;;;;7.38;3.78;;;14.40;99.90;;;;;;5016467;28;20374;-77
2023/09/26 04:05:48;;;;;;;6.97;4.47;;;14.40;99.90;;;;;;5043808;28;20049;-78
2023/09/26 04:08:18;;;;;;;6.00;4.00;;;14.40;99.90;;;;;;5048266;28;20562;-77
2023/09/26 04:10:45;;;;;;;7.55;4.75;;;14.30;99.90;;;;;;5033377;28;20083;-78
2023/09/26 04:13:11;;;;;;;9.52;5.50;;;14.30;99.90;;;;;;5040250;28;20489;-78
2023/09/26 04:15:38;;;;;;;8.18;4.65;;;14.30;99.90;;;;;;5046888;28;20037;-78
2023/09/26 04:18:05;;;;;;;10.90;6.10;;;14.30;99.90;;;;;;5048846;28;20045;-77
2023/09/26 04:20:31;;;;;;;7.68;4.93;;;14.30;99.90;;;;;;5031606;28;20428;-77
2023/09/26 04:22:57;;;;;;;10.98;5.45;;;14.20;99.90;;;;;;5048027;28;20170;-78
2023/09/26 04:25:22;;;;;;;5.55;3.58;;;14.20;99.90;;;;;;5049772;28;20124;-77
2023/09/26 04:27:49;;;;;;;8.18;4.97;;;14.20;99.90;;;;;;5033704;28;20049;-78
2023/09/26 04:30:14;;;;;;;9.43;5.50;;;14.20;99.90;;;;;;5044014;28;20048;-78
2023/09/26 04:32:40;;;;;;;9.00;5.95;;;14.10;99.90;;;;;;5033503;28;20396;-78
2023/09/26 04:35:06;;;;;;;9.65;7.78;;;14.10;99.90;;;;;;5049047;28;20048;-78
2023/09/26 04:37:32;;;;;;;9.80;5.90;;;14.10;99.90;;;;;;5050065;28;20133;-77
2023/09/26 04:40:07;;;;;;;14.88;8.68;;;14.00;99.90;;;;;;5044795;28;20644;-77
2023/09/26 04:42:34;;;;;;;;;;;14.00;99.90;;;;;;5022722;28;20122;-78
2023/09/26 04:44:59;;;;;;;7.38;5.32;;;14.00;99.90;;;;;;5039811;28;19925;-78
2023/09/26 04:47:28;;;;;;;9.50;6.88;;;13.90;99.90;;;;;;5051286;28;20045;-77
2023/09/26 04:49:56;;;;;;;9.85;7.15;;;13.90;99.90;;;;;;5047447;28;20045;-78
2023/09/26 04:52:22;;;;;;;11.32;8.55;;;13.90;99.90;;;;;;5046177;28;20408;-77
2023/09/26 04:54:50;;;;;;;11.23;7.25;;;13.90;99.90;;;;;;5030058;28;20041;-77
2023/09/26 04:57:16;;;;;;;11.63;8.80;;;13.80;99.90;;;;;;5050056;28;20049;-77
2023/09/26 04:59:43;;;;;;;11.48;8.60;;;13.80;99.90;;;;;;5049032;28;20100;-77
2023/09/26 05:02:09;;;;;;;12.48;7.93;;;13.80;99.90;;;;;;5049837;28;20052;-78
2023/09/26 05:04:35;;;;;;;14.63;8.80;;;13.80;99.90;;;;;;5033170;28;20481;-77
2023/09/26 05:07:00;;;;;;;11.63;8.45;;;13.80;99.90;;;;;;5046800;28;20391;-77
2023/09/26 05:09:26;;;;;;;12.48;7.72;;;13.80;99.90;;;;;;5038720;28;20045;-79
2023/09/26 05:11:51;;;;;;;8.98;6.88;;;13.70;99.90;;;;;;5049533;28;20141;-79
2023/09/26 05:14:17;;;;;;;11.85;9.35;;;13.80;99.90;;;;;;5049494;28;20037;-79
2023/09/26 05:16:43;;;;;;;10.50;7.45;;;13.70;99.90;;;;;;5049045;28;20038;-79
2023/09/26 05:19:08;;;;;;;12.73;9.32;;;13.70;99.90;;;;;;5039188;28;20661;-78
2023/09/26 05:21:34;;;;;;;9.73;7.20;;;13.70;99.90;;;;;;5050329;28;20105;-79
2023/09/26 05:24:00;;;;;;;11.90;7.57;;;13.70;99.90;;;;;;5049252;28;20053;-79
2023/09/26 05:26:25;;;;;;;11.13;8.60;;;13.70;99.90;;;;;;5052931;28;20083;-79
2023/09/26 05:28:51;;;;;;;10.05;7.47;;;13.70;99.90;;;;;;5053270;28;20041;-79
2023/09/26 05:31:17;;;;;;;13.45;9.77;;;13.70;99.90;;;;;;5052963;28;20033;-79
2023/09/26 05:33:43;;;;;;;9.18;7.40;;;13.70;99.90;;;;;;5052572;28;20053;-78
2023/09/26 05:36:09;;;;;;;12.88;10.02;;;13.70;99.90;;;;;;5053056;28;20049;-79
2023/09/26 05:38:35;;;;;;;8.52;6.68;;;13.60;99.90;;;;;;5046307;28;20095;-76
2023/09/26 05:41:01;;;;;;;13.07;8.63;;;13.70;99.90;;;;;;5046585;28;20076;-77
2023/09/26 05:43:27;;;;;;;13.82;9.15;;;13.60;99.90;;;;;;5075044;28;20055;-77
2023/09/26 05:45:52;;;;;;;8.88;5.57;;;13.60;99.90;;;;;;5052379;28;20041;-76
2023/09/26 05:48:21;;;;;;;10.77;7.63;;;13.60;99.90;;;;;;5047988;28;20037;-77
2023/09/26 05:50:47;;;;;;;11.90;8.27;;;13.60;99.90;;;;;;5052732;28;20037;-78
2023/09/26 05:53:13;;;;;;;13.18;8.90;;;13.60;99.90;;;;;;5052930;28;20049;-76
2023/09/26 05:55:38;;;;;;;13.43;8.98;;;13.70;99.90;;;;;;5047119;28;20049;-78
2023/09/26 05:58:04;;;;;;;9.52;6.68;;;13.70;99.90;;;;;;5044766;28;20036;-77
2023/09/26 06:00:30;;;;;;;10.45;7.20;;;13.60;99.90;;;;;;5046370;28;20473;-76
2023/09/26 06:02:56;;;;;;;12.88;8.52;;;13.60;99.90;;;;;;5039821;28;20065;-75
2023/09/26 06:05:21;;;;;;;11.05;7.78;;;13.70;99.90;;;;;;5039766;28;20041;-76
2023/09/26 06:07:48;;;;;;;12.73;7.97;;;13.60;99.90;;;;;;5051486;28;20274;-77
2023/09/26 06:10:14;;;;;;;9.90;7.15;;;13.60;99.90;;;;;;5044878;28;20477;-80
2023/09/26 06:12:40;;;;;;;10.50;7.13;;;13.60;99.90;;;;;;5052326;28;20094;-79
2023/09/26 06:15:09;;;;;;;10.23;7.03;;;13.70;99.90;;;;;;5053437;28;20045;-79
2023/09/26 06:17:34;;;;;;;12.68;9.55;;;13.70;99.90;;;;;;5052399;28;20830;-79
2023/09/26 06:20:00;;;;;;;11.45;9.52;;;13.70;99.90;;;;;;5051601;28;20067;-82
2023/09/26 06:22:26;;;;;;;16.35;10.98;;;13.70;99.90;;;;;;5051201;28;20064;-82
2023/09/26 06:24:51;;;;;;;14.30;11.35;;;13.70;99.90;;;;;;5051851;28;20080;-82
2023/09/26 06:27:17;;;;;;;14.45;10.75;;;13.60;99.90;;;;;;5043792;28;20036;-81
2023/09/26 06:29:43;;;;;;;15.40;11.60;;;13.60;99.90;;;;;;5043801;28;20083;-80
2023/09/26 06:32:10;;;;;;;14.38;11.65;;;13.60;99.90;;;;;;5039777;28;20044;-81
2023/09/26 06:34:39;;;;;;;15.23;11.43;;;13.60;99.90;;;;;;5063642;28;20053;-81
2023/09/26 06:37:05;;;;;;;13.88;10.75;;;13.70;99.90;;;;;;5034139;28;20053;-82
2023/09/26 06:39:31;;;;;;;19.02;11.13;;;13.70;99.90;;;;;;5037709;28;20049;-80
2023/09/26 06:41:58;;;;;;;13.57;9.95;;;13.70;99.90;;;;;;5040806;28;20046;-80
2023/09/26 06:44:23;;;;;;;13.40;9.93;;;13.70;99.90;;;;;;5049125;28;20103;-81
2023/09/26 06:46:49;;;;;;;16.45;10.68;;;13.80;99.90;;;;;;5043694;28;20040;-81
2023/09/26 06:49:15;;;;;;;11.25;9.30;;;13.80;99.90;;;;;;5037589;28;20385;-81
2023/09/26 06:51:40;;;;;;;14.10;10.02;;;13.80;99.90;;;;;;5037918;28;20047;-81
2023/09/26 06:54:06;;;;;;;10.98;8.90;;;13.90;99.90;;;;;;5074289;28;20420;-81
2023/09/26 06:56:32;;;;;;;11.20;8.07;;;13.90;99.90;;;;;;5049381;28;20102;-81
2023/09/26 06:58:57;;;;;;;10.50;8.15;;;14.00;99.90;;;;;;5042706;28;20049;-82
2023/09/26 07:01:23;;;;;;;12.80;8.10;;;14.00;99.90;;;;;;5040795;28;20405;-81
2023/09/26 07:03:49;;;;;;;17.33;9.23;;;14.10;99.90;;;;;;5041041;28;20071;-81
2023/09/26 07:06:15;;;;;;;13.45;8.43;;;14.20;99.90;;;;;;5049449;28;20049;-81
2023/09/26 07:08:43;;;;;;;12.40;8.82;;;14.20;99.90;;;;;;5032299;28;20041;-82
2023/09/26 07:11:09;;;;;;;14.75;8.13;;;14.20;99.90;;;;;;5036012;28;20072;-82
2023/09/26 07:13:35;;;;;;;13.57;8.32;;;14.30;99.90;;;;;;5051407;28;20048;-81
2023/09/26 07:16:05;;;;;;;12.35;7.55;;;14.40;99.90;;;;;;5041336;28;20047;-82
2023/09/26 07:18:32;;;;;;;12.88;7.50;;;14.40;99.90;;;;;;5040299;28;20500;-82
2023/09/26 07:21:05;;;;;;;11.13;6.72;;;14.50;99.90;;;;;;5047929;28;20045;-82
2023/09/26 07:23:39;;;;;;;10.70;6.50;;;14.60;99.90;;;;;;5051040;28;20045;-81
2023/09/26 07:26:12;;;;;;;9.85;6.70;;;14.60;99.90;;;;;;5045088;28;20046;-82
2023/09/26 07:28:41;;;;;;;13.05;6.95;;;14.70;99.90;;;;;;5032349;28;20053;-81
2023/09/26 07:31:11;;;;;;;9.75;6.95;;;14.70;99.90;;;;;;5038143;28;20037;-81
2023/09/26 07:33:40;;;;;;;9.18;6.63;;;14.80;99.90;;;;;;5032457;28;20037;-81
2023/09/26 07:36:07;;;;;;;9.18;6.13;;;14.80;99.90;;;;;;5040758;28;20050;-81
2023/09/26 07:38:33;;;;;;;11.30;6.35;;;14.90;99.90;;;;;;5045656;28;20179;-81
2023/09/26 07:41:00;;;;;;;9.80;6.32;;;14.90;99.90;;;;;;5041239;28;20049;-81
2023/09/26 07:43:29;;;;;;;11.70;6.40;;;14.90;99.90;;;;;;5039211;28;20489;-81
2023/09/26 07:46:05;;;;;;;8.50;6.05;;;15.00;99.90;;;;;;5047100;28;20037;-80
2023/09/26 07:48:31;;;;;;;8.98;5.75;;;15.10;99.90;;;;;;5047771;28;20071;-80
2023/09/26 07:50:57;;;;;;;8.95;5.43;;;15.10;99.90;;;;;;5039262;28;20130;-81
2023/09/26 07:53:22;;;;;;;11.43;6.32;;;15.20;99.90;;;;;;5032443;28;20481;-81
2023/09/26 07:55:48;;;;;;;11.23;6.25;;;15.30;99.90;;;;;;5040647;28;20520;-80
2023/09/26 07:58:15;;;;;;;11.18;5.95;;;15.30;99.90;;;;;;5050630;28;20048;-81
2023/09/26 08:00:41;;;;;;;9.27;5.95;;;15.40;99.90;;;;;;5044807;28;20062;-79
2023/09/26 08:03:06;;;;;;;13.57;6.70;;;15.40;99.90;;;;;;5043814;28;20047;-81
2023/09/26 08:05:32;;;;;;;11.68;6.05;;;15.50;99.90;;;;;;5042400;28;20044;-80
2023/09/26 08:07:59;;;;;;;12.57;6.70;;;15.60;99.90;;;;;;5047486;28;20041;-80
2023/09/26 08:10:24;;;;;;;11.82;6.35;;;15.60;99.90;;;;;;5051529;28;20127;-81
2023/09/26 08:12:50;;;;;;;12.57;5.53;;;15.70;99.90;;;;;;5043735;28;20505;-80
2023/09/26 08:15:16;;;;;;;12.02;6.10;;;15.70;99.90;;;;;;5039085;28;22142;-81
2023/09/26 08:17:42;;;;;;;10.32;5.43;;;15.80;99.90;;;;;;5051283;28;20049;-81
2023/09/26 08:20:11;;;;;;;11.55;5.55;;;15.90;99.90;;;;;;5044266;28;20087;-82
2023/09/26 08:22:36;;;;;;;13.57;6.47;;;15.90;99.90;;;;;;5032627;28;20048;-81
2023/09/26 08:25:03;;;;;;;10.70;5.95;;;16.00;99.90;;;;;;5046468;28;20419;-81
2023/09/26 08:27:28;;;;;;;10.68;5.60;;;16.10;99.90;;;;;;5042147;28;20048;-81
2023/09/26 08:29:54;;;;;;;8.23;5.50;;;16.10;99.90;;;;;;5040951;28;20037;-81
2023/09/26 08:32:19;;;;;;;10.82;5.53;;;16.20;99.90;;;;;;5042525;28;20052;-80
2023/09/26 08:34:45;;;;;;;10.82;6.00;;;16.30;99.90;;;;;;5043982;28;20064;-81
2023/09/26 08:37:12;;;;;;;9.88;5.82;;;16.30;99.90;;;;;;5046657;28;20216;-81
2023/09/26 08:39:38;;;;;;;10.88;6.20;;;16.40;99.90;;;;;;5045986;28;20055;-79
2023/09/26 08:42:03;;;;;;;10.73;5.65;;;16.40;99.90;;;;;;5034436;28;20037;-81
2023/09/26 08:44:29;;;;;;;10.70;6.15;;;16.40;99.90;;;;;;5035542;28;20183;-80
2023/09/26 08:46:56;;;;;;;11.48;6.07;;;16.50;99.90;;;;;;5067429;28;20552;-81
2023/09/26 08:49:21;;;;;;;11.50;6.47;;;16.50;99.90;;;;;;5042908;28;20155;-81
2023/09/26 08:51:47;;;;;;;13.63;6.78;;;16.60;99.90;;;;;;5046304;28;20071;-81
2023/09/26 08:54:13;;;;;;;14.65;6.40;;;16.60;99.90;;;;;;5067515;28;20041;-81
2023/09/26 08:56:39;;;;;;;11.85;6.30;;;16.60;99.90;;;;;;5050783;28;20045;-77
2023/09/26 08:59:06;;;;;;;9.52;6.05;;;16.70;99.90;;;;;;5041561;28;20452;-79
2023/09/26 09:01:32;;;;;;;14.48;7.07;;;16.70;99.90;;;;;;5053676;28;20055;-81
2023/09/26 09:03:57;;;;;;;12.50;6.38;;;16.80;99.90;;;;;;5026933;28;20051;-81
2023/09/26 09:06:23;;;;;;;13.05;6.32;;;16.80;99.90;;;;;;5041479;28;20041;-84
2023/09/26 09:08:49;;;;;;;10.32;6.40;;;16.80;99.90;;;;;;5039822;28;20045;-82
2023/09/26 09:11:31;;;;;;;15.90;6.50;;;16.90;99.90;;;;;;5044526;28;20520;-81
2023/09/26 09:13:57;;;;;;;12.25;6.25;;;16.90;99.90;;;;;;5053758;28;20469;-81
2023/09/26 09:16:22;;;;;;;10.15;5.40;;;17.00;99.90;;;;;;5049116;28;20043;-81
2023/09/26 09:18:51;;;;;;;12.25;6.38;;;17.00;99.90;;;;;;5043697;28;20043;-81
2023/09/26 09:21:31;;;;;;;10.48;5.88;;;17.10;99.90;;;;;;5047738;28;20041;-81
2023/09/26 09:24:07;;;;;;;10.70;6.28;;;17.10;99.90;;;;;;5049535;28;20045;-82
2023/09/26 09:26:35;;;;;;;9.90;5.47;;;17.20;99.90;;;;;;5044618;28;20044;-82
2023/09/26 09:29:21;;;;;;;10.60;5.22;;;17.30;99.90;;;;;;5046022;28;20489;-81
2023/09/26 09:31:48;;;;;;;13.75;5.50;;;17.50;99.90;;;;;;5050352;28;20049;-82
2023/09/26 09:34:15;;;;;;;9.57;5.22;;;17.70;99.90;;;;;;5083163;28;20083;-82
2023/09/26 09:36:43;;;;;;;8.70;5.07;;;17.80;99.90;;;;;;5051504;28;20060;-80
2023/09/26 09:39:09;;;;;;;11.90;5.35;;;18.00;99.90;;;;;;5044256;28;20037;-82
2023/09/26 09:41:39;;;;;;;8.95;5.55;;;18.10;99.90;;;;;;5046273;28;20044;-82
2023/09/26 09:44:05;;;;;;;10.13;5.15;;;18.10;99.90;;;;;;5041999;28;20040;-82
2023/09/26 09:46:38;;;;;;;8.63;4.80;;;18.20;99.90;;;;;;5047335;28;20049;-81
2023/09/26 09:49:06;;;;;;;10.80;4.95;;;18.30;99.90;;;;;;5042983;28;20055;-82
2023/09/26 09:51:32;;;;;;;10.35;4.90;;;18.40;99.90;;;;;;5036201;28;20048;-81
2023/09/26 09:54:00;;;;;;;10.35;4.80;;;18.60;99.90;;;;;;5048276;28;20100;-81
2023/09/26 09:56:33;;;;;;;8.77;4.57;;;18.70;99.90;;;;;;5039884;28;20136;-82
2023/09/26 09:59:05;;;;;;;7.75;3.83;;;18.90;99.90;;;;;;5041779;28;20073;-80
2023/09/26 10:01:33;;;;;;;7.80;3.75;;;19.00;99.90;;;;;;5050386;28;20041;-82
2023/09/26 10:03:59;;;;;;;9.63;3.20;;;19.10;99.90;;;;;;5041650;28;20045;-81
2023/09/26 10:06:25;;;;;;;8.48;3.10;;;19.20;99.90;;;;;;5046035;28;20051;-81
2023/09/26 10:08:54;;;;;;;7.45;2.78;;;19.30;99.90;;;;;;5040522;28;20041;-82
2023/09/26 10:11:21;;;;;;;7.53;3.38;;;19.40;99.90;;;;;;5041955;28;20057;-80
2023/09/26 10:13:47;;;;;;;7.03;3.10;;;19.50;99.90;;;;;;5042321;28;20052;-81
2023/09/26 10:16:20;;;;;;;8.63;2.97;;;19.70;99.90;;;;;;5046188;28;20132;-81
2023/09/26 10:18:48;;;;;;;6.30;2.80;;;19.70;99.90;;;;;;5050333;28;20559;-81
2023/09/26 10:21:26;;;;;;;6.25;3.20;;;19.70;99.90;;;;;;5038422;28;20542;-80
2023/09/26 10:24:13;;;;;;;5.53;2.85;;;19.70;99.90;;;;;;5045298;28;20048;-80
2023/09/26 10:26:43;;;;;;;5.35;2.60;;;19.70;99.90;;;;;;5039242;28;20067;-79
2023/09/26 10:29:18;;;;;;;6.22;3.22;;;19.70;99.90;;;;;;5033945;28;20045;-75
2023/09/26 10:31:56;;;;;;;6.68;3.20;;;19.70;99.90;;;;;;5037787;28;20037;-75
2023/09/26 10:34:27;;;;;;;8.23;3.15;;;19.70;99.90;;;;;;5041536;28;20509;-76
2023/09/26 10:36:56;;;;;;;6.57;3.53;;;19.70;99.90;;;;;;5040120;28;20122;-75
2023/09/26 10:39:38;;;;;;;7.22;3.28;;;19.70;99.90;;;;;;5040585;28;20504;-75
2023/09/26 10:42:08;;;;;;;7.22;3.55;;;19.80;99.90;;;;;;5033587;28;20160;-76
2023/09/26 10:44:34;;;;;;;9.07;3.58;;;19.80;99.90;;;;;;5065155;28;20077;-75
2023/09/26 10:46:59;;;;;;;7.78;3.80;;;19.90;99.90;;;;;;5041561;28;20131;-76
2023/09/26 10:49:26;;;;;;;8.25;4.10;;;19.90;99.90;;;;;;5048221;28;20049;-76
2023/09/26 10:51:51;;;;;;;6.25;4.18;;;20.00;99.90;;;;;;5040056;28;20060;-75
2023/09/26 10:54:17;;;;;;;8.00;4.93;;;20.00;99.90;;;;;;5046972;28;20045;-76
2023/09/26 10:56:49;;;;;;;7.18;4.10;;;20.00;99.90;;;;;;5048873;28;20511;-75
2023/09/26 10:59:18;;;;;;;9.35;4.28;;;20.10;99.90;;;;;;5043326;28;20052;-76
2023/09/26 11:01:47;;;;;;;6.82;4.70;;;20.20;99.90;;;;;;5050699;28;20055;-76
2023/09/26 11:04:13;;;;;;;7.57;4.45;;;20.20;99.90;;;;;;5045035;28;20041;-76
2023/09/26 11:06:41;;;;;;;9.25;4.35;;;20.20;99.90;;;;;;5050700;28;20044;-75
2023/09/26 11:09:07;;;;;;;7.75;4.70;;;20.20;99.90;;;;;;5037910;28;20051;-75
2023/09/26 11:11:34;;;;;;;7.30;4.18;;;20.30;99.90;;;;;;5043152;28;20124;-76
2023/09/26 11:13:59;;;;;;;5.65;3.40;;;20.30;99.90;;;;;;5041295;28;20055;-75
2023/09/26 11:16:25;;;;;;;6.70;3.50;;;20.30;99.90;;;;;;5046678;28;20055;-76
2023/09/26 11:18:54;;;;;;;8.27;4.65;;;20.30;99.90;;;;;;5050495;28;20057;-77
2023/09/26 11:21:20;;;;;;;9.15;4.22;;;20.30;99.90;;;;;;5037648;28;20045;-77
2023/09/26 11:23:46;;;;;;;6.22;3.63;;;20.30;99.90;;;;;;5046859;28;20044;-76
2023/09/26 11:26:12;;;;;;;6.55;3.95;;;20.30;99.90;;;;;;5032575;28;20052;-77
2023/09/26 11:28:39;;;;;;;6.38;4.47;;;20.30;99.90;;;;;;5038667;28;20076;-77
2023/09/26 11:31:05;;;;;;;6.50;4.15;;;20.40;99.90;;;;;;5040924;28;20514;-76
2023/09/26 11:33:31;;;;;;;8.23;4.82;;;20.40;99.90;;;;;;5046641;28;20068;-76
2023/09/26 11:35:58;;;;;;;7.63;4.35;;;20.40;99.90;;;;;;5051220;28;20425;-77
2023/09/26 11:38:24;;;;;;;8.82;4.20;;;20.40;99.90;;;;;;5042459;28;20110;-77
2023/09/26 11:40:57;;;;;;;8.82;4.80;;;20.40;99.90;;;;;;5042261;28;20128;-76
2023/09/26 11:43:22;;;;;;;7.70;3.70;;;20.50;99.90;;;;;;5066324;28;20049;-77
2023/09/26 11:45:48;;;;;;;9.43;4.10;;;20.50;99.90;;;;;;5064418;28;20074;-76
2023/09/26 11:48:14;;;;;;;9.20;4.18;;;20.50;99.90;;;;;;5042580;28;20074;-77
2023/09/26 11:50:40;;;;;;;7.68;3.92;;;20.50;99.90;;;;;;5041617;28;20870;-77
2023/09/26 11:53:07;;;;;;;7.35;4.25;;;20.60;99.90;;;;;;5041611;28;20063;-82
2023/09/26 11:55:35;;;;;;;9.55;3.55;;;20.60;99.90;;;;;;5043511;28;20488;-83
2023/09/26 11:58:01;;;;;;;13.25;3.50;;;20.70;99.90;;;;;;5033209;28;20056;-77
2023/09/26 12:00:26;;;;;;;5.90;3.90;;;20.70;99.90;;;;;;5035109;28;20053;-76
2023/09/26 12:02:54;;;;;;;6.47;4.00;;;20.70;99.90;;;;;;5039752;28;20068;-76
2023/09/26 12:05:21;;;;;;;8.10;4.07;;;20.70;99.90;;;;;;5024214;28;20469;-76
2023/09/26 12:07:47;;;;;;;5.57;3.30;;;20.60;99.90;;;;;;5048599;28;20041;-80
2023/09/26 12:10:13;;;;;;;7.65;3.78;;;20.60;99.90;;;;;;5051845;28;20481;-80
2023/09/26 12:12:40;;;;;;;7.53;3.53;;;20.60;99.90;;;;;;5027548;28;20087;-80
2023/09/26 12:15:25;;;;;;;8.73;3.70;;;20.70;99.90;;;;;;5067932;28;20042;-80
2023/09/26 12:17:53;;;;;;;6.35;3.20;;;20.70;99.90;;;;;;5037155;28;20129;-80
2023/09/26 12:20:24;;;;;;;6.57;3.22;;;20.70;99.90;;;;;;5049545;28;20081;-80
2023/09/26 12:22:54;;;;;;;7.25;3.35;;;20.70;99.90;;;;;;5035387;28;20049;-80
2023/09/26 12:25:24;;;;;;;6.03;3.38;;;20.70;99.90;;;;;;5046413;28;20075;-80
2023/09/26 12:27:51;;;;;;;6.32;3.55;;;20.70;99.90;;;;;;5043611;28;20045;-80
2023/09/26 12:30:19;;;;;;;9.00;3.70;;;20.70;99.90;;;;;;5033665;28;20049;-80
2023/09/26 12:32:45;;;;;;;9.27;3.63;;;20.70;99.90;;;;;;5046026;28;20424;-80
2023/09/26 12:35:10;;;;;;;7.05;3.50;;;20.60;99.90;;;;;;5047027;28;20061;-79
2023/09/26 12:37:37;;;;;;;7.90;3.60;;;20.60;99.90;;;;;;5049425;28;20120;-79
2023/09/26 12:40:12;;;;;;;7.65;3.47;;;20.70;99.90;;;;;;5041028;28;20471;-79
2023/09/26 12:42:39;;;;;;;7.03;3.28;;;20.70;99.90;;;;;;5039266;28;20049;-79
2023/09/26 12:45:06;;;;;;;8.02;4.05;;;20.70;99.90;;;;;;5049266;28;20045;-79